Time;durP1;ratioP1;P1;durP2;ratioP2;P2;SDS_P1;SDS_P2;PMS_P1;PMS_P2;Temp;Humidity;BMP_temperature;BMP_pressure;BME280_temperature;BME280_humidity;BME280_pressure;Samples;Min_cycle;Max_cycle;Signal;HPM_P1;HPM_P2
2022/02/24 00:00:05;;;;;;;;;;;21.90;44.70;;;;;;5156635;27;19923;-43
2022/02/24 00:02:33;;;;;;;;;;;21.90;44.80;;;;;;5157925;27;20345;-44
2022/02/24 00:05:01;;;;;;;;;;;21.90;44.80;;;;;;5156837;27;19971;-42
2022/02/24 00:07:28;;;;;;;;;;;21.90;44.80;;;;;;5157841;27;19988;-42
2022/02/24 00:09:55;;;;;;;;;;;21.90;44.80;;;;;;5158026;27;19948;-45
2022/02/24 00:12:22;;;;;;;;;;;21.90;44.80;;;;;;5157743;27;20291;-43
2022/02/24 00:14:50;;;;;;;;;;;21.90;44.80;;;;;;5156787;27;19966;-46
2022/02/24 00:17:18;;;;;;;;;;;21.90;44.80;;;;;;5136522;27;19931;-42
2022/02/24 00:19:45;;;;;;;;;;;21.90;44.80;;;;;;5136541;27;20375;-43
2022/02/24 00:22:12;;;;;;;;;;;21.90;44.80;;;;;;5155440;27;19967;-42
2022/02/24 00:24:40;;;;;;;;;;;21.90;44.80;;;;;;5157174;27;19923;-43
2022/02/24 00:27:07;;;;;;;;;;;21.80;44.70;;;;;;5157449;27;19923;-44
2022/02/24 00:29:34;;;;;;;;;;;21.80;44.70;;;;;;5157392;27;19923;-43
2022/02/24 00:32:01;;;;;;;;;;;21.80;44.70;;;;;;5155905;27;19923;-45
2022/02/24 00:34:28;;;;;;;;;;;21.80;44.70;;;;;;5157314;27;19922;-43
2022/02/24 00:36:56;;;;;;;;;;;21.80;44.70;;;;;;5138319;27;19923;-43
2022/02/24 00:39:23;;;;;;;;;;;21.80;44.70;;;;;;5157197;27;19966;-42
2022/02/24 00:41:50;;;;;;;;;;;21.80;44.70;;;;;;5157684;27;19996;-43
2022/02/24 00:44:17;;;;;;;;;;;21.80;44.70;;;;;;5139004;27;20391;-44
2022/02/24 00:46:44;;;;;;;;;;;21.80;44.70;;;;;;5154916;27;19930;-42
2022/02/24 00:49:12;;;;;;;;;;;21.80;44.70;;;;;;5156919;27;20401;-44
2022/02/24 00:51:39;;;;;;;;;;;21.80;44.70;;;;;;5156080;27;19923;-44
2022/02/24 00:54:07;;;;;;;;;;;21.80;44.80;;;;;;5156637;27;19972;-45
2022/02/24 00:56:34;;;;;;;;;;;21.80;44.70;;;;;;5156860;27;19923;-44
2022/02/24 00:59:02;;;;;;;;;;;21.80;44.70;;;;;;5138382;27;20358;-44
2022/02/24 01:01:29;;;;;;;;;;;21.80;44.70;;;;;;5155344;27;19923;-45
2022/02/24 01:03:57;;;;;;;;;;;21.80;44.70;;;;;;5138385;27;19972;-43
2022/02/24 01:06:24;;;;;;;;;;;21.80;44.70;;;;;;5155956;27;19971;-43
2022/02/24 01:08:51;;;;;;;;;;;21.80;44.80;;;;;;5156623;27;20304;-45
2022/02/24 01:11:18;;;;;;;;;;;21.80;44.80;;;;;;5138279;27;19983;-43
2022/02/24 01:13:45;;;;;;;;;;;21.80;44.80;;;;;;5156790;27;19948;-43
2022/02/24 01:16:12;;;;;;;;;;;21.80;44.80;;;;;;5155684;27;19923;-44
2022/02/24 01:18:39;;;;;;;;;;;21.80;44.80;;;;;;5156163;27;19927;-42
2022/02/24 01:21:06;;;;;;;;;;;21.80;44.80;;;;;;5155337;27;19923;-44
2022/02/24 01:23:33;;;;;;;;;;;21.80;44.80;;;;;;5156058;27;19968;-42
2022/02/24 01:26:00;;;;;;;;;;;21.80;44.80;;;;;;5156285;27;19931;-45
2022/02/24 01:28:27;;;;;;;;;;;21.80;44.80;;;;;;5156224;27;19961;-45
2022/02/24 01:30:54;;;;;;;;;;;21.80;44.80;;;;;;5136512;27;19980;-43
2022/02/24 01:33:24;;;;;;;;;;;21.80;45.40;;;;;;5155856;27;19958;-43
2022/02/24 01:35:51;;;;;;;;;;;21.80;44.80;;;;;;5155119;27;20347;-45
2022/02/24 01:38:18;;;;;;;;;;;21.80;44.80;;;;;;5155842;27;20023;-42
2022/02/24 01:40:45;;;;;;;;;;;21.80;44.80;;;;;;5155693;27;19923;-47
2022/02/24 01:43:12;;;;;;;;;;;21.80;44.80;;;;;;5137640;27;19923;-45
2022/02/24 01:45:39;;;;;;;;;;;21.80;44.80;;;;;;5155912;27;19923;-44
2022/02/24 01:48:06;;;;;;;;;;;21.80;44.80;;;;;;5155399;27;19923;-42
2022/02/24 01:50:33;;;;;;;;;;;21.70;44.70;;;;;;5155588;27;19927;-45
2022/02/24 01:53:00;;;;;;;;;;;21.70;44.70;;;;;;5154490;27;20416;-43
2022/02/24 01:55:29;;;;;;;;;;;21.70;44.80;;;;;;5155726;27;20022;-42
2022/02/24 01:57:56;;;;;;;;;;;21.70;44.80;;;;;;5155041;27;19923;-45
2022/02/24 02:00:23;;;;;;;;;;;21.70;44.70;;;;;;5155409;27;19923;-44
2022/02/24 02:02:50;;;;;;;;;;;21.70;44.70;;;;;;5154775;27;19962;-43
2022/02/24 02:05:18;;;;;;;;;;;21.70;44.70;;;;;;5155373;27;19923;-44
2022/02/24 02:07:45;;;;;;;;;;;21.70;44.70;;;;;;5154887;27;19966;-42
2022/02/24 02:10:12;;;;;;;;;;;21.70;44.80;;;;;;5155619;27;20297;-45
2022/02/24 02:12:46;;;;;;;;;;;21.70;44.80;;;;;;5136934;27;19972;-46
2022/02/24 02:15:13;;;;;;;;;;;21.70;44.70;;;;;;5155456;27;20370;-43
2022/02/24 02:17:40;;;;;;;;;;;21.70;44.80;;;;;;5154127;27;19967;-44
2022/02/24 02:20:07;;;;;;;;;;;21.70;44.70;;;;;;5155283;27;19923;-43
2022/02/24 02:22:38;;;;;;;;;;;21.70;44.80;;;;;;5153725;27;20209;-47
2022/02/24 02:25:06;;;;;;;;;;;21.70;44.80;;;;;;5155457;27;20026;-44
2022/02/24 02:27:33;;;;;;;;;;;21.70;44.80;;;;;;5155438;27;20354;-46
2022/02/24 02:30:00;;;;;;;;;;;21.70;44.80;;;;;;5155425;27;20356;-45
2022/02/24 02:32:28;;;;;;;;;;;21.70;44.80;;;;;;5153872;27;19923;-43
2022/02/24 02:34:55;;;;;;;;;;;21.70;44.80;;;;;;5155123;27;20413;-44
2022/02/24 02:37:22;;;;;;;;;;;21.70;44.80;;;;;;5154566;27;19957;-46
2022/02/24 02:39:49;;;;;;;;;;;21.70;44.80;;;;;;5154976;27;19970;-45
2022/02/24 02:42:16;;;;;;;;;;;21.70;44.80;;;;;;5155008;27;19968;-44
2022/02/24 02:44:43;;;;;;;;;;;21.70;44.80;;;;;;5155846;27;19924;-44
2022/02/24 02:47:11;;;;;;;;;;;21.70;44.80;;;;;;5153977;27;19934;-43
2022/02/24 02:49:38;;;;;;;;;;;21.70;44.90;;;;;;5154937;27;19977;-46
2022/02/24 02:52:06;;;;;;;;;;;21.70;44.80;;;;;;5154347;27;19970;-43
2022/02/24 02:54:33;;;;;;;;;;;21.70;44.90;;;;;;5155235;27;19923;-44
2022/02/24 02:57:01;;;;;;;;;;;21.70;44.80;;;;;;5154915;27;19966;-43
2022/02/24 02:59:28;;;;;;;;;;;21.70;44.80;;;;;;5155097;27;19978;-44
2022/02/24 03:01:55;;;;;;;;;;;21.70;44.90;;;;;;5154356;27;19954;-44
2022/02/24 03:04:23;;;;;;;;;;;21.70;44.80;;;;;;5136562;27;19923;-43
2022/02/24 03:06:50;;;;;;;;;;;21.70;44.80;;;;;;5154289;27;19927;-44
2022/02/24 03:09:17;;;;;;;;;;;21.70;44.80;;;;;;5154566;27;19979;-43
2022/02/24 03:11:44;;;;;;;;;;;21.70;44.80;;;;;;5158263;27;19923;-45
2022/02/24 03:14:12;;;;;;;;;;;21.70;44.80;;;;;;5158912;27;19968;-46
2022/02/24 03:16:39;;;;;;;;;;;21.70;44.90;;;;;;5157843;27;19955;-46
2022/02/24 03:19:08;;;;;;;;;;;21.70;44.80;;;;;;5137405;27;19929;-44
2022/02/24 03:21:35;;;;;;;;;;;21.60;44.70;;;;;;5137753;27;19959;-45
2022/02/24 03:24:02;;;;;;;;;;;21.60;44.80;;;;;;5154584;27;19937;-46
2022/02/24 03:26:29;;;;;;;;;;;21.60;44.70;;;;;;5158407;27;20387;-46
2022/02/24 03:28:56;;;;;;;;;;;21.60;44.70;;;;;;5139982;27;20021;-46
2022/02/24 03:31:23;;;;;;;;;;;21.60;44.70;;;;;;5139956;27;20382;-45
2022/02/24 03:33:50;;;;;;;;;;;21.60;44.70;;;;;;5157084;27;19923;-46
2022/02/24 03:36:17;;;;;;;;;;;21.60;44.70;;;;;;5158499;27;20017;-44
2022/02/24 03:38:44;;;;;;;;;;;21.60;44.80;;;;;;5157413;27;19966;-45
2022/02/24 03:41:11;;;;;;;;;;;21.60;44.80;;;;;;5158624;27;19923;-46
2022/02/24 03:43:38;;;;;;;;;;;21.60;44.80;;;;;;5157983;27;19923;-45
2022/02/24 03:46:05;;;;;;;;;;;21.60;44.70;;;;;;5158320;27;19996;-45
2022/02/24 03:48:32;;;;;;;;;;;21.60;44.80;;;;;;5156893;27;20401;-43
2022/02/24 03:50:59;;;;;;;;;;;21.60;44.80;;;;;;5139591;27;20358;-45
2022/02/24 03:53:26;;;;;;;;;;;21.60;44.70;;;;;;5157061;27;19962;-43
2022/02/24 03:55:53;;;;;;;;;;;21.60;44.70;;;;;;5139469;27;19966;-43
2022/02/24 03:58:20;;;;;;;;;;;21.60;44.70;;;;;;5157974;27;20001;-43
2022/02/24 04:00:48;;;;;;;;;;;21.60;44.80;;;;;;5158051;27;20013;-43
2022/02/24 04:03:19;;;;;;;;;;;21.60;44.80;;;;;;5156629;27;19923;-44
2022/02/24 04:05:46;;;;;;;;;;;21.60;44.80;;;;;;5157619;27;19923;-43
2022/02/24 04:08:14;;;;;;;;;;;21.60;44.80;;;;;;5156802;27;20447;-42
2022/02/24 04:10:40;;;;;;;;;;;21.60;44.80;;;;;;5157843;27;19954;-42
2022/02/24 04:13:08;;;;;;;;;;;21.60;44.70;;;;;;5157760;27;20101;-42
2022/02/24 04:15:36;;;;;;;;;;;21.60;44.80;;;;;;5157715;27;19966;-43
2022/02/24 04:18:07;;;;;;;;;;;21.60;44.70;;;;;;5156084;27;19927;-43
2022/02/24 04:20:34;;;;;;;;;;;21.60;44.70;;;;;;5157430;27;19987;-42
2022/02/24 04:23:01;;;;;;;;;;;21.60;44.70;;;;;;5156152;27;19926;-45
2022/02/24 04:25:28;;;;;;;;;;;21.60;44.80;;;;;;5157206;27;19923;-43
2022/02/24 04:27:55;;;;;;;;;;;21.60;44.80;;;;;;5157458;27;20255;-43
2022/02/24 04:30:22;;;;;;;;;;;21.60;44.70;;;;;;5138778;27;19927;-42
2022/02/24 04:32:49;;;;;;;;;;;21.60;44.80;;;;;;5156195;27;19927;-43
2022/02/24 04:35:16;;;;;;;;;;;21.60;44.80;;;;;;5157332;27;19927;-45
2022/02/24 04:37:43;;;;;;;;;;;21.60;44.80;;;;;;5157273;27;19946;-43
2022/02/24 04:40:12;;;;;;;;;;;21.60;44.80;;;;;;5156416;27;19927;-44
2022/02/24 04:42:39;;;;;;;;;;;21.60;44.80;;;;;;5156911;27;19929;-44
2022/02/24 04:45:06;;;;;;;;;;;21.60;44.80;;;;;;5138778;27;19930;-42
2022/02/24 04:47:33;;;;;;;;;;;21.60;44.80;;;;;;5138371;27;19923;-44
2022/02/24 04:50:00;;;;;;;;;;;21.60;44.80;;;;;;5135775;27;19923;-43
2022/02/24 04:52:27;;;;;;;;;;;21.60;44.80;;;;;;5135960;27;19923;-44
2022/02/24 04:54:54;;;;;;;;;;;21.60;44.80;;;;;;5151591;27;19923;-44
2022/02/24 04:57:22;;;;;;;;;;;21.60;44.80;;;;;;5157142;27;19927;-44
2022/02/24 04:59:49;;;;;;;;;;;21.60;44.80;;;;;;5138492;27;20348;-43
2022/02/24 05:02:17;;;;;;;;;;;21.60;44.70;;;;;;5157303;27;19926;-45
2022/02/24 05:04:45;;;;;;;;;;;21.60;44.80;;;;;;5155957;27;19923;-43
2022/02/24 05:07:12;;;;;;;;;;;21.60;44.80;;;;;;5156667;27;19923;-44
2022/02/24 05:09:39;;;;;;;;;;;21.50;44.70;;;;;;5155559;27;19923;-44
2022/02/24 05:12:07;;;;;;;;;;;21.60;44.70;;;;;;5156271;27;19923;-44
2022/02/24 05:14:34;;;;;;;;;;;21.60;44.80;;;;;;5137887;27;19923;-46
2022/02/24 05:17:01;;;;;;;;;;;21.60;44.70;;;;;;5156442;27;20022;-43
2022/02/24 05:19:28;;;;;;;;;;;21.50;44.70;;;;;;5155071;27;19930;-43
2022/02/24 05:21:55;;;;;;;;;;;21.60;45.40;;;;;;5155788;27;19930;-46
2022/02/24 05:24:23;;;;;;;;;;;21.50;44.70;;;;;;5155206;27;19975;-43
2022/02/24 05:26:50;;;;;;;;;;;21.50;44.70;;;;;;5156186;27;19930;-44
2022/02/24 05:29:17;;;;;;;;;;;21.50;44.70;;;;;;5155976;27;19996;-44
2022/02/24 05:31:45;;;;;;;;;;;21.50;44.70;;;;;;5155898;27;19923;-44
2022/02/24 05:34:12;;;;;;;;;;;21.50;44.70;;;;;;5154013;27;20408;-44
2022/02/24 05:36:39;;;;;;;;;;;21.50;44.70;;;;;;5155793;27;19923;-45
2022/02/24 05:39:06;;;;;;;;;;;21.50;44.70;;;;;;5154944;27;19923;-44
2022/02/24 05:41:33;;;;;;;;;;;21.50;44.70;;;;;;5156035;27;19923;-43
2022/02/24 05:44:01;;;;;;;;;;;21.50;44.70;;;;;;5155718;27;20410;-47
2022/02/24 05:46:28;;;;;;;;;;;21.50;44.70;;;;;;5155652;27;19923;-44
2022/02/24 05:48:56;;;;;;;;;;;21.50;44.70;;;;;;5154399;27;19930;-45
2022/02/24 05:51:23;;;;;;;;;;;21.50;44.70;;;;;;5155566;27;20289;-44
2022/02/24 05:53:50;;;;;;;;;;;21.50;44.70;;;;;;5154744;27;19930;-45
2022/02/24 05:56:18;;;;;;;;;;;21.50;44.70;;;;;;5155800;27;19948;-43
2022/02/24 05:58:46;;;;;;;;;;;21.50;44.70;;;;;;5155898;27;20007;-44
2022/02/24 06:01:13;;;;;;;;;;;21.50;44.70;;;;;;5155678;27;19923;-47
2022/02/24 06:03:40;;;;;;;;;;;21.50;44.70;;;;;;5154559;27;19923;-42
2022/02/24 06:06:07;;;;;;;;;;;21.50;44.70;;;;;;5137072;27;20014;-44
2022/02/24 06:08:34;;;;;;;;;;;21.50;44.70;;;;;;5155648;27;19927;-44
2022/02/24 06:11:02;;;;;;;;;;;21.50;44.70;;;;;;5154851;27;19927;-44
2022/02/24 06:13:29;;;;;;;;;;;21.50;44.70;;;;;;5155514;27;19923;-44
2022/02/24 06:15:56;;;;;;;;;;;21.50;44.70;;;;;;5136916;27;19976;-44
2022/02/24 06:18:23;;;;;;;;;;;21.50;44.70;;;;;;5154955;27;19972;-44
2022/02/24 06:20:52;;;;;;;;;;;21.50;44.70;;;;;;5154267;27;19951;-43
2022/02/24 06:23:19;;;;;;;;;;;21.50;44.60;;;;;;5155267;27;19923;-42
2022/02/24 06:25:46;;;;;;;;;;;21.50;44.60;;;;;;5154407;27;19923;-47
2022/02/24 06:28:13;;;;;;;;;;;21.50;44.60;;;;;;5155459;27;19996;-43
2022/02/24 06:30:40;;;;;;;;;;;21.50;44.60;;;;;;5155125;27;19977;-43
2022/02/24 06:33:07;;;;;;;;;;;21.50;44.60;;;;;;5155438;27;20309;-43
2022/02/24 06:35:34;;;;;;;;;;;21.50;44.50;;;;;;5154170;27;19950;-43
2022/02/24 06:38:02;;;;;;;;;;;21.50;44.60;;;;;;5137036;27;20316;-44
2022/02/24 06:40:30;;;;;;;;;;;21.50;44.50;;;;;;5154509;27;19992;-45
2022/02/24 06:42:58;;;;;;;;;;;21.60;44.60;;;;;;5155223;27;19929;-43
2022/02/24 06:45:26;;;;;;;;;;;21.50;44.50;;;;;;5156756;27;20355;-43
2022/02/24 06:47:53;;;;;;;;;;;21.50;44.50;;;;;;5159437;27;20326;-43
2022/02/24 06:50:20;;;;;;;;;;;21.50;44.50;;;;;;5157916;27;20378;-44
2022/02/24 06:52:47;;;;;;;;;;;21.60;44.60;;;;;;5159034;27;19992;-43
2022/02/24 06:55:14;;;;;;;;;;;21.50;44.50;;;;;;5158159;27;19923;-43
2022/02/24 06:57:45;;;;;;;;;;;21.50;44.50;;;;;;5159234;27;19930;-42
2022/02/24 07:00:12;;;;;;;;;;;21.60;44.60;;;;;;5158776;27;19974;-44
2022/02/24 07:02:40;;;;;;;;;;;21.60;44.50;;;;;;5158822;27;20386;-45
2022/02/24 07:05:07;;;;;;;;;;;21.60;44.50;;;;;;5157690;27;19923;-43
2022/02/24 07:07:34;;;;;;;;;;;21.60;44.50;;;;;;5158589;27;19965;-43
2022/02/24 07:10:04;;;;;;;;;;;21.60;44.50;;;;;;5158426;27;20379;-47
2022/02/24 07:12:31;;;;;;;;;;;21.60;44.50;;;;;;5158992;27;19923;-43
2022/02/24 07:14:58;;;;;;;;;;;21.60;44.50;;;;;;5158606;27;19923;-44
2022/02/24 07:17:25;;;;;;;;;;;21.60;44.50;;;;;;5158493;27;20382;-46
2022/02/24 07:19:53;;;;;;;;;;;21.60;44.50;;;;;;5157110;27;19924;-43
2022/02/24 07:22:20;;;;;;;;;;;21.60;44.50;;;;;;5158425;27;19923;-44
2022/02/24 07:24:47;;;;;;;;;;;21.60;44.40;;;;;;5158075;27;19955;-44
2022/02/24 07:27:15;;;;;;;;;;;21.60;44.40;;;;;;5137935;27;19930;-48
2022/02/24 07:29:42;;;;;;;;;;;21.60;44.40;;;;;;5137550;27;19935;-42
2022/02/24 07:32:10;;;;;;;;;;;21.60;44.40;;;;;;5137529;27;19923;-45
2022/02/24 07:34:37;;;;;;;;;;;21.60;44.40;;;;;;5138998;27;19927;-44
2022/02/24 07:37:04;;;;;;;;;;;21.60;44.30;;;;;;5158157;27;19960;-43
2022/02/24 07:39:31;;;;;;;;;;;21.60;44.30;;;;;;5157958;27;20013;-45
2022/02/24 07:41:58;;;;;;;;;;;21.60;44.30;;;;;;5157263;27;19929;-47
2022/02/24 07:44:26;;;;;;;;;;;21.60;44.30;;;;;;5158002;27;19927;-45
2022/02/24 07:46:54;;;;;;;;;;;21.60;44.30;;;;;;5157135;27;19933;-43
2022/02/24 07:49:26;;;;;;;;;;;21.60;44.30;;;;;;5157731;27;19931;-45
2022/02/24 07:51:53;;;;;;;;;;;21.60;44.30;;;;;;5156354;27;19923;-42
2022/02/24 07:54:23;;;;;;;;;;;21.60;44.30;;;;;;5158281;27;19984;-45
2022/02/24 07:56:50;;;;;;;;;;;21.60;44.30;;;;;;5156425;27;20018;-47
2022/02/24 07:59:18;;;;;;;;;;;21.70;44.30;;;;;;5157986;27;19935;-44
2022/02/24 08:01:45;;;;;;;;;;;21.60;44.30;;;;;;5139318;27;19982;-45
2022/02/24 08:04:12;;;;;;;;;;;21.70;44.30;;;;;;5157651;27;20378;-47
2022/02/24 08:06:40;;;;;;;;;;;21.70;44.30;;;;;;5156483;27;20006;-49
2022/02/24 08:09:07;;;;;;;;;;;21.70;44.30;;;;;;5157842;27;19975;-46
2022/02/24 08:11:35;;;;;;;;;;;21.70;44.20;;;;;;5156561;27;19930;-47
2022/02/24 08:14:02;;;;;;;;;;;21.70;44.20;;;;;;5157369;27;19933;-43
2022/02/24 08:16:29;;;;;;;;;;;21.70;44.10;;;;;;5157642;27;20335;-43
2022/02/24 08:18:59;;;;;;;;;;;21.70;44.10;;;;;;5157371;27;19927;-43
2022/02/24 08:21:26;;;;;;;;;;;21.70;44.10;;;;;;5156003;27;19923;-44
2022/02/24 08:23:53;;;;;;;;;;;21.70;44.10;;;;;;5157382;27;19926;-46
2022/02/24 08:26:24;;;;;;;;;;;21.70;44.10;;;;;;5156449;27;19967;-46
2022/02/24 08:28:51;;;;;;;;;;;21.70;44.10;;;;;;5138997;27;19923;-48
2022/02/24 08:31:19;;;;;;;;;;;21.70;44.00;;;;;;5157507;27;19923;-46
2022/02/24 08:33:46;;;;;;;;;;;21.80;44.10;;;;;;5157033;27;20294;-46
2022/02/24 08:36:13;;;;;;;;;;;21.80;44.00;;;;;;5155816;27;19927;-43
2022/02/24 08:38:39;;;;;;;;;;;21.80;44.00;;;;;;5157195;27;20292;-44
2022/02/24 08:41:26;;;;;;;;;;;21.80;44.00;;;;;;5156248;27;20002;-43
2022/02/24 08:43:53;;;;;;;;;;;21.80;44.00;;;;;;5138772;27;20250;-43
2022/02/24 08:46:20;;;;;;;;;;;21.80;43.90;;;;;;5138723;27;19962;-41
2022/02/24 08:48:47;;;;;;;;;;;21.80;43.90;;;;;;5156609;27;19923;-44
2022/02/24 08:51:14;;;;;;;;;;;21.80;43.90;;;;;;5155076;27;19932;-44
2022/02/24 08:53:41;;;;;;;;;;;21.80;43.90;;;;;;5156392;27;19923;-44
2022/02/24 08:56:09;;;;;;;;;;;21.80;43.80;;;;;;5156106;27;20015;-44
2022/02/24 08:58:36;;;;;;;;;;;21.80;43.80;;;;;;5137994;27;20378;-42
2022/02/24 09:01:03;;;;;;;;;;;21.90;43.80;;;;;;5156637;27;19923;-46
2022/02/24 09:03:32;;;;;;;;;;;21.90;43.80;;;;;;5156389;27;19933;-45
2022/02/24 09:05:59;;;;;;;;;;;21.90;43.70;;;;;;5155559;27;20290;-43
2022/02/24 09:08:26;;;;;;;;;;;21.90;43.70;;;;;;5155655;27;19930;-44
2022/02/24 09:10:53;;;;;;;;;;;21.90;43.70;;;;;;5137505;27;19931;-47
2022/02/24 09:13:20;;;;;;;;;;;21.90;43.60;;;;;;5155787;27;20285;-42
2022/02/24 09:15:47;;;;;;;;;;;21.90;43.60;;;;;;5156094;27;19975;-44
2022/02/24 09:18:14;;;;;;;;;;;21.90;43.50;;;;;;5156250;27;19968;-42
2022/02/24 09:20:41;;;;;;;;;;;21.90;43.50;;;;;;5154715;27;19982;-44
2022/02/24 09:23:09;;;;;;;;;;;21.90;43.40;;;;;;5155818;27;19923;-44
2022/02/24 09:25:38;;;;;;;;;;;22.00;43.50;;;;;;5156246;27;19923;-44
2022/02/24 09:28:05;;;;;;;;;;;22.00;43.50;;;;;;5155205;27;19924;-42
2022/02/24 09:30:32;;;;;;;;;;;22.00;43.40;;;;;;5156153;27;19934;-44
2022/02/24 09:33:05;;;;;;;;;;;22.00;43.30;;;;;;5155816;27;19955;-44
2022/02/24 09:35:33;;;;;;;;;;;22.00;43.30;;;;;;5155789;27;19927;-44
2022/02/24 09:38:00;;;;;;;;;;;22.00;43.20;;;;;;5154863;27;19929;-43
2022/02/24 09:40:29;;;;;;;;;;;22.00;43.20;;;;;;5155929;27;19927;-46
2022/02/24 09:43:16;;;;;;;;;;;22.00;43.10;;;;;;5154563;27;20459;-43
2022/02/24 09:45:45;;;;;;;;;;;22.00;43.00;;;;;;5155523;27;20033;-48
2022/02/24 09:48:14;;;;;;;;;;;22.00;43.00;;;;;;5155524;27;19926;-46
2022/02/24 09:50:42;;;;;;;;;;;22.10;43.00;;;;;;5155664;27;19927;-44
2022/02/24 09:53:09;;;;;;;;;;;22.10;43.00;;;;;;5154103;27;20425;-44
2022/02/24 09:55:36;;;;;;;;;;;22.10;42.90;;;;;;5155654;27;19991;-43
2022/02/24 09:58:03;;;;;;;;;;;22.10;42.90;;;;;;5154899;27;19927;-44
2022/02/24 10:00:30;;;;;;;;;;;22.10;42.90;;;;;;5155494;27;20081;-42
2022/02/24 10:02:57;;;;;;;;;;;22.10;43.50;;;;;;5155603;27;19930;-44
2022/02/24 10:05:25;;;;;;;;;;;22.10;42.80;;;;;;5155228;27;20434;-42
2022/02/24 10:07:52;;;;;;;;;;;22.10;42.80;;;;;;5154047;27;19987;-43
2022/02/24 10:10:19;;;;;;;;;;;22.20;42.80;;;;;;5155367;27;19923;-45
2022/02/24 10:13:04;;;;;;;;;;;22.20;42.80;;;;;;5154421;27;20454;-45
2022/02/24 10:15:31;;;;;;;;;;;22.20;42.80;;;;;;5155428;27;19930;-42
2022/02/24 10:18:08;;;;;;;;;;;22.20;42.70;;;;;;5155139;27;19923;-43
2022/02/24 10:20:36;;;;;;;;;;;22.20;42.70;;;;;;5154723;27;19923;-42
2022/02/24 10:23:03;;;;;;;;;;;22.20;42.70;;;;;;5154106;27;19923;-43
2022/02/24 10:25:37;;;;;;;;;;;22.20;42.70;;;;;;5155444;27;19962;-43
2022/02/24 10:28:05;;;;;;;;;;;22.20;42.70;;;;;;5154598;27;20250;-45
2022/02/24 10:30:32;;;;;;;;;;;22.20;42.70;;;;;;5154905;27;19934;-44
2022/02/24 10:33:01;;;;;;;;;;;22.20;42.70;;;;;;5155174;27;20386;-44
2022/02/24 10:35:34;;;;;;;;;;;22.30;42.70;;;;;;5154923;27;19968;-45
2022/02/24 10:38:01;;;;;;;;;;;22.30;42.70;;;;;;5153811;27;19975;-49
2022/02/24 10:40:32;;;;;;;;;;;22.30;42.70;;;;;;5154918;27;19923;-46
2022/02/24 10:43:18;;;;;;;;;;;22.30;42.70;;;;;;5154145;27;19923;-47
2022/02/24 10:45:46;;;;;;;;;;;22.30;42.70;;;;;;5154955;27;19975;-47
2022/02/24 10:48:13;;;;;;;;;;;22.30;42.70;;;;;;5155249;27;20331;-46
2022/02/24 10:50:43;;;;;;;;;;;22.40;42.70;;;;;;5155084;27;19924;-49
2022/02/24 10:53:10;;;;;;;;;;;22.40;42.80;;;;;;5153515;27;19927;-43
2022/02/24 10:55:56;;;;;;;;;;;22.40;42.70;;;;;;5154870;27;20021;-43
2022/02/24 10:58:24;;;;;;;;;;;22.40;42.70;;;;;;5154040;27;19934;-44
2022/02/24 11:01:10;;;;;;;;;;;22.40;42.70;;;;;;5154664;27;19967;-43
2022/02/24 11:03:38;;;;;;;;;;;22.40;42.70;;;;;;5154735;27;19930;-43
2022/02/24 11:06:06;;;;;;;;;;;22.40;42.70;;;;;;5155524;27;20042;-42
2022/02/24 11:08:34;;;;;;;;;;;22.50;42.70;;;;;;5153526;27;20344;-45
2022/02/24 11:11:02;;;;;;;;;;;22.50;42.70;;;;;;5154977;27;20006;-44
2022/02/24 11:13:29;;;;;;;;;;;22.50;42.70;;;;;;5154230;27;19975;-42
2022/02/24 11:15:57;;;;;;;;;;;22.50;42.70;;;;;;5154886;27;19923;-46
2022/02/24 11:18:25;;;;;;;;;;;22.50;42.70;;;;;;5154646;27;19931;-43
2022/02/24 11:20:52;;;;;;;;;;;22.50;42.70;;;;;;5136418;27;20030;-43
2022/02/24 11:23:22;;;;;;;;;;;22.50;42.70;;;;;;5153170;27;19930;-42
2022/02/24 11:26:04;;;;;;;;;;;22.50;42.70;;;;;;5154487;27;19923;-45
2022/02/24 11:28:37;;;;;;;;;;;22.50;42.70;;;;;;5154004;27;20381;-43
2022/02/24 11:31:09;;;;;;;;;;;22.60;42.70;;;;;;5155622;27;20306;-43
2022/02/24 11:33:36;;;;;;;;;;;22.60;42.70;;;;;;5158267;27;19970;-44
2022/02/24 11:36:12;;;;;;;;;;;22.60;42.70;;;;;;5158442;27;19923;-45
2022/02/24 11:38:40;;;;;;;;;;;22.60;42.70;;;;;;5157510;27;20285;-43
2022/02/24 11:41:08;;;;;;;;;;;22.70;42.70;;;;;;5158011;27;19972;-48
2022/02/24 11:43:36;;;;;;;;;;;22.70;42.70;;;;;;5157727;27;19970;-44
2022/02/24 11:46:04;;;;;;;;;;;22.70;42.60;;;;;;5158250;27;19934;-43
2022/02/24 11:48:34;;;;;;;;;;;22.70;42.70;;;;;;5158197;27;20010;-43
2022/02/24 11:51:03;;;;;;;;;;;22.70;42.60;;;;;;5157552;27;20013;-44
2022/02/24 11:53:32;;;;;;;;;;;22.70;42.60;;;;;;5156919;27;19967;-43
2022/02/24 11:56:20;;;;;;;;;;;22.70;42.60;;;;;;5158088;27;19958;-43
2022/02/24 11:58:48;;;;;;;;;;;22.70;42.60;;;;;;5156975;27;19963;-43
2022/02/24 12:01:27;;;;;;;;;;;22.80;42.70;;;;;;5157523;27;19923;-43
2022/02/24 12:03:55;;;;;;;;;;;22.80;42.60;;;;;;5157638;27;20389;-45
2022/02/24 12:06:36;;;;;;;;;;;22.80;42.60;;;;;;5157625;27;20002;-42
2022/02/24 12:09:06;;;;;;;;;;;22.80;42.60;;;;;;5156744;27;19996;-42
2022/02/24 12:11:36;;;;;;;;;;;22.80;42.50;;;;;;5157479;27;19966;-44
2022/02/24 12:14:24;;;;;;;;;;;22.80;42.50;;;;;;5156684;27;20017;-43
2022/02/24 12:17:03;;;;;;;;;;;22.80;42.50;;;;;;5157736;27;19955;-42
2022/02/24 12:19:39;;;;;;;;;;;22.90;42.60;;;;;;5157155;27;19968;-45
2022/02/24 12:22:11;;;;;;;;;;;22.80;42.50;;;;;;5157221;27;19923;-43
2022/02/24 12:24:38;;;;;;;;;;;22.90;42.60;;;;;;5137183;27;19935;-42
2022/02/24 12:27:26;;;;;;;;;;;22.90;42.50;;;;;;5136439;27;20397;-43
2022/02/24 12:29:54;;;;;;;;;;;22.90;42.50;;;;;;5150671;27;19971;-42
2022/02/24 12:32:21;;;;;;;;;;;22.90;42.50;;;;;;5157374;27;19927;-44
2022/02/24 12:34:48;;;;;;;;;;;22.90;42.50;;;;;;5157240;27;20034;-43
2022/02/24 12:37:16;;;;;;;;;;;22.90;42.50;;;;;;5156970;27;19931;-44
2022/02/24 12:39:43;;;;;;;;;;;22.90;42.50;;;;;;5156054;27;20354;-43
2022/02/24 12:42:11;;;;;;;;;;;22.90;42.50;;;;;;5157006;27;19930;-45
2022/02/24 12:44:39;;;;;;;;;;;23.00;42.50;;;;;;5156064;27;19923;-43
2022/02/24 12:47:07;;;;;;;;;;;23.00;42.50;;;;;;5157025;27;19923;-43
2022/02/24 12:49:45;;;;;;;;;;;23.00;42.50;;;;;;5156984;27;19946;-43
2022/02/24 12:52:19;;;;;;;;;;;23.00;42.50;;;;;;5156674;27;19996;-43
2022/02/24 12:54:46;;;;;;;;;;;23.00;42.40;;;;;;5155729;27;19976;-43
2022/02/24 12:57:13;;;;;;;;;;;23.00;42.40;;;;;;5138538;27;20279;-44
2022/02/24 12:59:43;;;;;;;;;;;23.00;42.40;;;;;;5155708;27;19923;-43
2022/02/24 13:02:10;;;;;;;;;;;23.00;42.30;;;;;;5156715;27;19923;-47
2022/02/24 13:04:39;;;;;;;;;;;23.10;42.40;;;;;;5156676;27;20002;-52
2022/02/24 13:07:07;;;;;;;;;;;23.10;42.40;;;;;;5156588;27;19949;-43
2022/02/24 13:09:43;;;;;;;;;;;23.10;42.40;;;;;;5155507;27;20366;-49
2022/02/24 13:12:14;;;;;;;;;;;23.10;42.40;;;;;;5156271;27;19923;-45
2022/02/24 13:14:46;;;;;;;;;;;23.10;42.40;;;;;;5137407;27;19923;-48
2022/02/24 13:17:21;;;;;;;;;;;23.00;42.40;;;;;;5156462;27;19923;-48
2022/02/24 13:19:48;;;;;;;;;;;23.10;42.50;;;;;;5155955;27;19929;-46
2022/02/24 13:22:15;;;;;;;;;;;23.10;42.50;;;;;;5155721;27;20027;-48
2022/02/24 13:24:42;;;;;;;;;;;23.10;42.50;;;;;;5155200;27;19970;-45
2022/02/24 13:27:19;;;;;;;;;;;23.10;42.40;;;;;;5155970;27;19972;-44
2022/02/24 13:29:48;;;;;;;;;;;23.10;42.40;;;;;;5137135;27;19952;-46
2022/02/24 13:32:17;;;;;;;;;;;23.10;42.40;;;;;;5155977;27;19972;-48
2022/02/24 13:34:45;;;;;;;;;;;23.10;42.40;;;;;;5155510;27;19979;-47
2022/02/24 13:37:15;;;;;;;;;;;23.10;42.40;;;;;;5156049;27;20375;-47
2022/02/24 13:39:47;;;;;;;;;;;23.10;42.40;;;;;;5154643;27;20527;-43
2022/02/24 13:42:17;;;;;;;;;;;23.10;42.40;;;;;;5155513;27;19923;-46
2022/02/24 13:44:44;;;;;;;;;;;23.10;42.40;;;;;;5155129;27;19995;-46
2022/02/24 13:47:12;;;;;;;;;;;23.10;42.40;;;;;;5155827;27;19927;-44
2022/02/24 13:49:42;;;;;;;;;;;23.10;42.40;;;;;;5155886;27;20021;-44
2022/02/24 13:52:28;;;;;;;;;;;23.20;42.40;;;;;;5155526;27;19988;-46
2022/02/24 13:54:55;;;;;;;;;;;23.20;42.40;;;;;;5153901;27;19968;-42
2022/02/24 13:57:23;;;;;;;;;;;23.20;42.40;;;;;;5155763;27;19954;-42
2022/02/24 14:00:07;;;;;;;;;;;23.20;42.30;;;;;;5155034;27;19991;-44
2022/02/24 14:02:34;;;;;;;;;;;23.20;42.40;;;;;;5155349;27;20473;-42
2022/02/24 14:05:06;;;;;;;;;;;23.20;42.30;;;;;;5155713;27;19981;-44
2022/02/24 14:07:33;;;;;;;;;;;23.20;42.30;;;;;;5155343;27;19927;-46
2022/02/24 14:10:05;;;;;;;;;;;23.20;42.30;;;;;;5154561;27;19968;-44
2022/02/24 14:12:38;;;;;;;;;;;23.30;42.30;;;;;;5155352;27;19981;-44
2022/02/24 14:15:06;;;;;;;;;;;23.30;42.30;;;;;;5154799;27;20267;-48
2022/02/24 14:17:33;;;;;;;;;;;23.30;42.20;;;;;;5154852;27;19927;-47
2022/02/24 14:20:01;;;;;;;;;;;23.30;42.20;;;;;;5155293;27;19968;-42
2022/02/24 14:22:28;;;;;;;;;;;23.30;42.20;;;;;;5154774;27;20279;-47